Eagle (EGE/KEGE)

Information

Location
Eagle, CO
Local Time
11:03 / 11:03 am
GMT Time
18:03 / 6:03 pm
Gates
3
No FAA reported delays
METAR KEGE 191656Z 00000KT 10SM CLR M07/M11 A3041 RMK AO2 SLP369 T10671111
TAF KEGE 191120Z 1912/2012 24004KT P6SM SCT250 AMD LTD TO CLD VIS AND WIND TIL 191400